Time;durP1;ratioP1;P1;durP2;ratioP2;P2;SDS_P1;SDS_P2;PMS_P1;PMS_P2;Temp;Humidity;BMP_temperature;BMP_pressure;BME280_temperature;BME280_humidity;BME280_pressure;Samples;Min_cycle;Max_cycle;Signal;HPM_P1;HPM_P2
2023/12/20 00:00:31;;;;;;;0.57;0.57;;;6.10;99.90;;;;;;5086545;28;20281;-75
2023/12/20 00:02:58;;;;;;;1.60;1.50;;;5.90;99.90;;;;;;5088092;28;20244;-75
2023/12/20 00:05:25;;;;;;;1.20;0.60;;;5.90;99.90;;;;;;5088843;28;20199;-76
2023/12/20 00:07:52;;;;;;;0.80;0.80;;;5.90;99.90;;;;;;5088445;28;20632;-75
2023/12/20 00:10:19;;;;;;;0.80;0.60;;;6.00;99.90;;;;;;5088050;28;20290;-75
2023/12/20 00:12:46;;;;;;;1.00;0.90;;;6.00;99.90;;;;;;5087967;28;20687;-76
2023/12/20 00:15:13;;;;;;;1.52;0.82;;;6.00;99.90;;;;;;5088126;28;20600;-76
2023/12/20 00:17:41;;;;;;;1.00;0.85;;;5.90;99.90;;;;;;5088291;28;20215;-75
2023/12/20 00:20:09;;;;;;;0.60;0.50;;;5.90;99.90;;;;;;5088145;28;20210;-75
2023/12/20 00:22:35;;;;;;;0.50;0.50;;;6.10;99.90;;;;;;5086321;28;20289;-76
2023/12/20 00:25:02;;;;;;;1.02;0.75;;;6.10;99.90;;;;;;5087034;28;20245;-75
2023/12/20 00:27:29;;;;;;;1.08;1.08;;;6.00;99.90;;;;;;5088060;28;20317;-76
2023/12/20 00:29:56;;;;;;;0.68;0.68;;;6.00;99.90;;;;;;5087116;28;20233;-76
2023/12/20 00:32:23;;;;;;;0.60;0.60;;;6.10;99.90;;;;;;5088005;28;20315;-76
2023/12/20 00:34:51;;;;;;;0.75;0.75;;;6.10;99.90;;;;;;5087891;28;20683;-75
2023/12/20 00:37:18;;;;;;;1.30;0.70;;;6.00;99.90;;;;;;5087744;28;20559;-76
2023/12/20 00:39:45;;;;;;;0.82;0.60;;;6.00;99.90;;;;;;5088124;28;20206;-76
2023/12/20 00:42:11;;;;;;;17.95;1.25;;;5.90;99.90;;;;;;5082304;28;20209;-76
2023/12/20 00:44:38;;;;;;;0.95;0.68;;;6.00;99.90;;;;;;5087351;28;20221;-76
2023/12/20 00:47:05;;;;;;;0.70;0.63;;;5.90;99.90;;;;;;5087368;28;20212;-76
2023/12/20 00:49:32;;;;;;;1.85;1.75;;;5.90;99.90;;;;;;5087154;28;20202;-76
2023/12/20 00:52:00;;;;;;;0.50;0.50;;;5.90;99.90;;;;;;5086695;28;20210;-76
2023/12/20 00:54:27;;;;;;;0.63;0.60;;;5.90;99.90;;;;;;5091714;28;20206;-76
2023/12/20 00:56:53;;;;;;;0.98;0.75;;;5.80;99.90;;;;;;5083614;28;20351;-76
2023/12/20 00:59:20;;;;;;;1.23;0.82;;;5.90;99.90;;;;;;5092806;28;20205;-76
2023/12/20 01:01:47;;;;;;;0.82;0.80;;;5.90;99.90;;;;;;5087163;28;20207;-76
2023/12/20 01:04:14;;;;;;;0.85;0.70;;;5.80;99.90;;;;;;5087322;28;20308;-76
2023/12/20 01:06:40;;;;;;;0.70;0.70;;;5.70;99.90;;;;;;5087684;28;20662;-76
2023/12/20 01:09:09;;;;;;;1.88;0.82;;;5.70;99.90;;;;;;5087162;28;21338;-76
2023/12/20 01:11:35;;;;;;;0.85;0.50;;;5.70;99.90;;;;;;5086482;28;20289;-77
2023/12/20 01:14:02;;;;;;;0.50;0.50;;;5.70;99.90;;;;;;5087254;28;20206;-76
2023/12/20 01:16:29;;;;;;;0.93;0.73;;;5.70;99.90;;;;;;5087036;28;20229;-77
2023/12/20 01:18:56;;;;;;;0.98;0.80;;;5.70;99.90;;;;;;5087058;28;20214;-77
2023/12/20 01:21:22;;;;;;;1.30;1.20;;;5.70;99.90;;;;;;5079304;28;20974;-77
2023/12/20 01:23:49;;;;;;;0.57;0.52;;;5.60;99.90;;;;;;5087651;28;20212;-78
2023/12/20 01:26:17;;;;;;;1.10;0.80;;;5.60;99.90;;;;;;5086271;28;20199;-78
2023/12/20 01:28:44;;;;;;;0.43;0.38;;;5.70;99.90;;;;;;5087010;28;20211;-78
2023/12/20 01:31:11;;;;;;;0.80;0.70;;;5.70;99.90;;;;;;5084891;28;20282;-78
2023/12/20 01:33:38;;;;;;;0.63;0.63;;;5.60;99.90;;;;;;5086891;28;20209;-78
2023/12/20 01:36:05;;;;;;;0.60;0.52;;;5.60;99.90;;;;;;5086851;28;20210;-78
2023/12/20 01:38:32;;;;;;;0.80;0.70;;;5.50;99.90;;;;;;5086559;28;20571;-78
2023/12/20 01:40:59;;;;;;;0.80;0.70;;;5.50;99.90;;;;;;5086071;28;20198;-78
2023/12/20 01:43:27;;;;;;;0.50;0.50;;;5.50;99.90;;;;;;5086951;28;20207;-78
2023/12/20 01:45:55;;;;;;;0.95;0.70;;;5.50;99.90;;;;;;5086335;28;20577;-78
2023/12/20 01:48:23;;;;;;;1.45;1.15;;;5.50;99.90;;;;;;5086700;28;20238;-78
2023/12/20 01:50:50;;;;;;;0.70;0.70;;;5.50;99.90;;;;;;5085506;28;20213;-78
2023/12/20 01:53:17;;;;;;;1.13;1.13;;;5.50;99.90;;;;;;5087274;28;20322;-78
2023/12/20 01:55:45;;;;;;;4.68;0.82;;;5.50;99.90;;;;;;5084844;28;20203;-78
2023/12/20 01:58:13;;;;;;;0.82;0.70;;;5.50;99.90;;;;;;5092088;28;20313;-78
2023/12/20 02:00:42;;;;;;;0.88;0.88;;;5.50;99.90;;;;;;5085742;28;20212;-78
2023/12/20 02:03:09;;;;;;;0.80;0.75;;;5.50;99.90;;;;;;5086275;28;20298;-78
2023/12/20 02:05:36;;;;;;;0.90;0.80;;;5.50;99.90;;;;;;5085884;28;20591;-78
2023/12/20 02:08:04;;;;;;;0.85;0.60;;;5.50;99.90;;;;;;5086166;28;20202;-78
2023/12/20 02:10:31;;;;;;;0.70;0.50;;;5.40;99.90;;;;;;5085985;28;20213;-78
2023/12/20 02:12:58;;;;;;;0.77;0.77;;;5.60;99.90;;;;;;5086640;28;20281;-78
2023/12/20 02:15:24;;;;;;;0.60;0.60;;;5.50;99.90;;;;;;5086279;28;20209;-78
2023/12/20 02:17:53;;;;;;;0.50;0.50;;;5.50;99.90;;;;;;5085784;28;20268;-78
2023/12/20 02:20:19;;;;;;;1.42;0.60;;;5.50;99.90;;;;;;5085158;28;20206;-78
2023/12/20 02:22:48;;;;;;;0.60;0.50;;;5.50;99.90;;;;;;5084701;28;20567;-78
2023/12/20 02:25:14;;;;;;;0.52;0.52;;;5.50;99.90;;;;;;5086458;28;20209;-78
2023/12/20 02:27:41;;;;;;;0.57;0.57;;;5.50;99.90;;;;;;5086191;28;20236;-78
2023/12/20 02:30:09;;;;;;;0.93;0.80;;;5.50;99.90;;;;;;5085738;28;20723;-78
2023/12/20 02:32:35;;;;;;;0.60;0.60;;;5.50;99.90;;;;;;5086517;28;20652;-78
2023/12/20 02:35:02;;;;;;;1.50;0.52;;;5.50;99.90;;;;;;5085916;28;20206;-78
2023/12/20 02:37:29;;;;;;;0.30;0.30;;;5.50;99.90;;;;;;5085938;28;20231;-78
2023/12/20 02:39:57;;;;;;;0.65;0.43;;;5.50;99.90;;;;;;5085655;28;20689;-78
2023/12/20 02:42:24;;;;;;;1.30;0.35;;;5.50;99.90;;;;;;5085661;28;20211;-78
2023/12/20 02:44:51;;;;;;;0.47;0.30;;;5.50;99.90;;;;;;5085966;28;20626;-78
2023/12/20 02:47:17;;;;;;;0.82;0.55;;;5.50;99.90;;;;;;5085640;28;20206;-78
2023/12/20 02:49:44;;;;;;;1.35;0.40;;;5.50;99.90;;;;;;5084562;28;20211;-78
2023/12/20 02:52:11;;;;;;;0.50;0.47;;;5.50;99.90;;;;;;5085536;28;20205;-78
2023/12/20 02:54:38;;;;;;;0.40;0.40;;;5.50;99.90;;;;;;5085446;28;20678;-77
2023/12/20 02:57:06;;;;;;;0.40;0.40;;;5.50;99.90;;;;;;5084417;28;20237;-78
2023/12/20 02:59:33;;;;;;;0.50;0.40;;;5.50;99.90;;;;;;5088598;28;20301;-78
2023/12/20 03:02:00;;;;;;;0.82;0.82;;;5.50;99.90;;;;;;5085840;28;20206;-78
2023/12/20 03:04:27;;;;;;;1.23;1.10;;;5.60;99.90;;;;;;5087909;28;20723;-78
2023/12/20 03:06:53;;;;;;;0.60;0.60;;;5.60;99.90;;;;;;5089541;28;20221;-78
2023/12/20 03:09:20;;;;;;;1.05;0.65;;;5.60;99.90;;;;;;5089938;28;20316;-78
2023/12/20 03:11:47;;;;;;;0.45;0.45;;;5.50;99.90;;;;;;5089198;28;20289;-77
2023/12/20 03:14:15;;;;;;;0.60;0.50;;;5.50;99.90;;;;;;5089553;28;20608;-78
2023/12/20 03:16:42;;;;;;;1.30;0.77;;;5.50;99.90;;;;;;5088902;28;20698;-78
2023/12/20 03:19:09;;;;;;;0.65;0.65;;;5.40;99.90;;;;;;5089345;28;20569;-78
2023/12/20 03:21:35;;;;;;;0.40;0.40;;;5.50;99.90;;;;;;5088424;28;20294;-78
2023/12/20 03:24:02;;;;;;;0.63;0.52;;;5.50;99.90;;;;;;5089363;28;20203;-78
2023/12/20 03:26:29;;;;;;;0.50;0.40;;;5.40;99.90;;;;;;5089305;28;20301;-78
2023/12/20 03:28:56;;;;;;;0.38;0.38;;;5.40;99.90;;;;;;5089075;28;20207;-78
2023/12/20 03:31:24;;;;;;;0.40;0.40;;;5.40;99.90;;;;;;5088842;28;20209;-78
2023/12/20 03:33:53;;;;;;;2.35;1.90;;;5.40;99.90;;;;;;5089014;28;20709;-79
2023/12/20 03:36:20;;;;;;;1.23;1.10;;;5.30;99.90;;;;;;5088930;28;20210;-79
2023/12/20 03:38:47;;;;;;;0.60;0.50;;;5.30;99.90;;;;;;5089237;28;20226;-77
2023/12/20 03:41:14;;;;;;;0.40;0.30;;;5.30;99.90;;;;;;5086657;28;20622;-78
2023/12/20 03:43:40;;;;;;;1.10;0.60;;;5.30;99.90;;;;;;5087566;28;20205;-78
2023/12/20 03:46:09;;;;;;;0.50;0.30;;;5.30;99.90;;;;;;5088168;28;20211;-77
2023/12/20 03:48:38;;;;;;;0.90;0.68;;;5.30;99.90;;;;;;5088033;28;20233;-77
2023/12/20 03:51:05;;;;;;;0.40;0.20;;;5.30;99.90;;;;;;5086566;28;20339;-77
2023/12/20 03:53:32;;;;;;;0.52;0.52;;;5.20;99.90;;;;;;5088194;28;20210;-77
2023/12/20 03:56:00;;;;;;;0.65;0.50;;;5.20;99.90;;;;;;5087416;28;20207;-77
2023/12/20 03:58:27;;;;;;;0.40;0.30;;;5.10;99.90;;;;;;5069038;28;20222;-77
2023/12/20 04:00:54;;;;;;;2.78;0.68;;;5.10;99.90;;;;;;5073641;28;20281;-77
2023/12/20 04:03:22;;;;;;;0.50;0.50;;;5.20;99.90;;;;;;5086551;28;20257;-77
2023/12/20 04:05:51;;;;;;;0.40;0.30;;;5.10;99.90;;;;;;5088446;28;20207;-77
2023/12/20 04:08:19;;;;;;;0.63;0.63;;;5.10;99.90;;;;;;5088094;28;20484;-77
2023/12/20 04:10:46;;;;;;;0.43;0.43;;;5.10;99.90;;;;;;5087476;28;20222;-77
2023/12/20 04:13:13;;;;;;;0.30;0.30;;;5.10;99.90;;;;;;5088652;28;20209;-77
2023/12/20 04:15:40;;;;;;;0.30;0.20;;;5.10;99.90;;;;;;5087171;28;20203;-77
2023/12/20 04:18:07;;;;;;;0.47;0.47;;;5.10;99.90;;;;;;5088083;28;20343;-77
2023/12/20 04:20:33;;;;;;;0.30;0.30;;;5.10;99.90;;;;;;5087787;28;20636;-77
2023/12/20 04:23:01;;;;;;;0.40;0.20;;;5.10;99.90;;;;;;5087588;28;20259;-77
2023/12/20 04:25:28;;;;;;;0.30;0.28;;;5.00;99.90;;;;;;5088591;28;20240;-77
2023/12/20 04:27:55;;;;;;;0.40;0.30;;;5.00;99.90;;;;;;5087865;28;20206;-77
2023/12/20 04:30:23;;;;;;;0.40;0.30;;;5.00;99.90;;;;;;5077946;28;20635;-77
2023/12/20 04:32:51;;;;;;;0.40;0.20;;;5.00;99.90;;;;;;5069626;28;20214;-76
2023/12/20 04:35:18;;;;;;;0.55;0.55;;;5.00;99.90;;;;;;5088056;28;20226;-77
2023/12/20 04:37:47;;;;;;;0.40;0.40;;;5.00;99.90;;;;;;5087607;28;20229;-77
2023/12/20 04:40:16;;;;;;;1.02;0.52;;;5.00;99.90;;;;;;5087753;28;20211;-77
2023/12/20 04:42:43;;;;;;;0.60;0.50;;;5.00;99.90;;;;;;5087588;28;20594;-77
2023/12/20 04:45:13;;;;;;;0.30;0.20;;;5.00;99.90;;;;;;5087414;28;20214;-77
2023/12/20 04:47:42;;;;;;;0.50;0.40;;;4.90;99.90;;;;;;5087611;28;20210;-77
2023/12/20 04:50:11;;;;;;;0.30;0.30;;;5.00;99.90;;;;;;5085990;28;20517;-77
2023/12/20 04:52:38;;;;;;;0.30;0.20;;;4.90;99.90;;;;;;5087485;28;20210;-77
2023/12/20 04:55:06;;;;;;;2.15;0.30;;;4.90;99.90;;;;;;5087562;28;20649;-77
2023/12/20 04:57:35;;;;;;;0.30;0.30;;;4.90;99.90;;;;;;5084863;28;20219;-77
2023/12/20 05:00:03;;;;;;;1.08;0.40;;;4.90;99.90;;;;;;5087014;28;20203;-76
2023/12/20 05:02:31;;;;;;;0.30;0.20;;;4.90;99.90;;;;;;5087991;28;20663;-77
2023/12/20 05:04:59;;;;;;;0.30;0.22;;;4.90;99.90;;;;;;5086867;28;20206;-77
2023/12/20 05:07:26;;;;;;;0.40;0.40;;;4.90;99.90;;;;;;5090010;28;20806;-77
2023/12/20 05:09:53;;;;;;;0.30;0.30;;;4.90;99.90;;;;;;5085991;28;20198;-77
2023/12/20 05:12:21;;;;;;;0.30;0.20;;;4.90;99.90;;;;;;5087558;28;20632;-77
2023/12/20 05:14:49;;;;;;;0.40;0.30;;;4.90;99.90;;;;;;5087873;28;20568;-77
2023/12/20 05:17:17;;;;;;;0.30;0.30;;;4.80;99.90;;;;;;5086786;28;20668;-77
2023/12/20 05:19:44;;;;;;;0.40;0.40;;;4.90;99.90;;;;;;5086447;28;20198;-77
2023/12/20 05:22:11;;;;;;;0.30;0.20;;;4.80;99.90;;;;;;5083512;28;20297;-77
2023/12/20 05:24:38;;;;;;;0.30;0.20;;;4.80;99.90;;;;;;5087334;28;20213;-77
2023/12/20 05:27:05;;;;;;;0.30;0.20;;;4.80;99.90;;;;;;5085070;28;20199;-77
2023/12/20 05:29:32;;;;;;;0.35;0.35;;;4.90;99.90;;;;;;5086484;28;20612;-76
2023/12/20 05:32:00;;;;;;;0.38;0.30;;;4.80;99.90;;;;;;5086505;28;20678;-77
2023/12/20 05:34:27;;;;;;;0.40;0.32;;;4.80;99.90;;;;;;5080916;28;20289;-77
2023/12/20 05:36:54;;;;;;;0.40;0.40;;;4.80;99.90;;;;;;5086660;28;20217;-77
2023/12/20 05:39:21;;;;;;;0.40;0.40;;;4.80;99.90;;;;;;5086718;28;20309;-77
2023/12/20 05:41:48;;;;;;;0.50;0.40;;;4.80;99.90;;;;;;5086181;28;20216;-76
2023/12/20 05:44:14;;;;;;;0.30;0.30;;;4.80;99.90;;;;;;5085940;28;20692;-76
2023/12/20 05:46:41;;;;;;;0.47;0.40;;;4.80;99.90;;;;;;5086292;28;20365;-76
2023/12/20 05:49:10;;;;;;;0.50;0.40;;;4.80;99.90;;;;;;5086543;28;20280;-77
2023/12/20 05:51:37;;;;;;;0.45;0.30;;;4.80;99.90;;;;;;5080129;28;20214;-76
2023/12/20 05:54:04;;;;;;;0.40;0.20;;;4.80;99.90;;;;;;5086869;28;20240;-77
2023/12/20 05:56:30;;;;;;;0.30;0.20;;;4.80;99.90;;;;;;5081764;28;20208;-76
2023/12/20 05:58:58;;;;;;;0.30;0.28;;;4.80;99.90;;;;;;5087934;28;20585;-76
2023/12/20 06:01:25;;;;;;;2.28;1.42;;;4.80;99.90;;;;;;5087957;28;20710;-75
2023/12/20 06:03:52;;;;;;;1.10;0.80;;;4.90;99.90;;;;;;5086370;28;20245;-75
2023/12/20 06:06:20;;;;;;;0.88;0.85;;;4.90;99.90;;;;;;5086336;28;20209;-76
2023/12/20 06:08:47;;;;;;;0.90;0.90;;;4.90;99.90;;;;;;5082670;28;20208;-76
2023/12/20 06:11:14;;;;;;;1.48;1.38;;;4.90;99.90;;;;;;5083787;28;20671;-76
2023/12/20 06:13:41;;;;;;;0.85;0.60;;;4.80;99.90;;;;;;5085341;28;20700;-76
2023/12/20 06:16:08;;;;;;;0.70;0.50;;;4.80;99.90;;;;;;5084927;28;20206;-75
2023/12/20 06:18:36;;;;;;;0.47;0.47;;;4.90;99.90;;;;;;5085062;28;20237;-75
2023/12/20 06:21:04;;;;;;;0.40;0.30;;;4.90;99.90;;;;;;5084479;28;20206;-75
2023/12/20 06:23:32;;;;;;;0.73;0.38;;;4.90;99.90;;;;;;5083597;28;20202;-74
2023/12/20 06:25:59;;;;;;;0.70;0.65;;;5.00;99.90;;;;;;5084666;28;20207;-76
2023/12/20 06:28:25;;;;;;;1.02;0.80;;;4.90;99.90;;;;;;5084837;28;20670;-75
2023/12/20 06:30:54;;;;;;;1.13;0.40;;;4.90;99.90;;;;;;5084241;28;20650;-75
2023/12/20 06:33:22;;;;;;;0.68;0.65;;;4.90;99.90;;;;;;5085073;28;20218;-75
2023/12/20 06:35:49;;;;;;;1.15;0.77;;;4.90;99.90;;;;;;5082785;28;20211;-75
2023/12/20 06:38:16;;;;;;;0.70;0.70;;;4.90;99.90;;;;;;5082773;28;20295;-76
2023/12/20 06:40:44;;;;;;;1.13;1.10;;;5.00;99.90;;;;;;5088881;28;20216;-76
2023/12/20 06:43:10;;;;;;;0.40;0.40;;;4.90;99.90;;;;;;5090098;28;20210;-76
2023/12/20 06:45:37;;;;;;;0.70;0.55;;;4.90;99.90;;;;;;5090073;28;20281;-75
2023/12/20 06:48:05;;;;;;;0.50;0.50;;;4.90;99.90;;;;;;5089281;28;20216;-75
2023/12/20 06:50:32;;;;;;;1.90;1.17;;;4.90;99.90;;;;;;5089655;28;20215;-75
2023/12/20 06:52:59;;;;;;;1.25;0.80;;;5.00;99.90;;;;;;5090006;28;20553;-76
2023/12/20 06:55:25;;;;;;;0.95;0.95;;;5.00;99.90;;;;;;5087938;28;20203;-76
2023/12/20 06:57:53;;;;;;;0.50;0.50;;;5.00;99.90;;;;;;5088132;28;20206;-76
2023/12/20 07:00:21;;;;;;;1.30;0.50;;;5.00;99.90;;;;;;5089021;28;20237;-76
2023/12/20 07:02:47;;;;;;;0.60;0.57;;;5.10;99.90;;;;;;5089985;28;20289;-84
2023/12/20 07:05:19;;;;;;;1.50;0.47;;;5.10;99.90;;;;;;5086605;28;20674;-84
2023/12/20 07:07:46;;;;;;;0.45;0.40;;;5.10;99.90;;;;;;5084580;28;20206;-84
2023/12/20 07:10:13;;;;;;;0.40;0.40;;;5.00;99.90;;;;;;5089077;28;20209;-84
2023/12/20 07:12:40;;;;;;;0.73;0.50;;;5.10;99.90;;;;;;5089584;28;20230;-84
2023/12/20 07:15:09;;;;;;;2.38;1.30;;;5.10;99.90;;;;;;5089111;28;20613;-83
2023/12/20 07:17:36;;;;;;;0.90;0.73;;;5.10;99.90;;;;;;5087369;28;20207;-84
2023/12/20 07:20:03;;;;;;;0.70;0.70;;;5.20;99.90;;;;;;5088949;28;20317;-84
2023/12/20 07:22:31;;;;;;;1.05;0.95;;;5.10;99.90;;;;;;5088240;28;20317;-85
2023/12/20 07:24:58;;;;;;;1.38;1.02;;;5.10;99.90;;;;;;5088954;28;20667;-84
2023/12/20 07:27:25;;;;;;;1.20;1.10;;;5.00;99.90;;;;;;5089283;28;20213;-84
2023/12/20 07:29:51;;;;;;;1.15;1.02;;;5.10;99.90;;;;;;5088578;28;20210;-81
2023/12/20 07:32:19;;;;;;;0.60;0.60;;;5.10;99.90;;;;;;5088241;28;20213;-82
2023/12/20 07:34:47;;;;;;;0.60;0.60;;;5.10;99.90;;;;;;5088116;28;20567;-81
2023/12/20 07:37:14;;;;;;;1.30;1.00;;;5.20;99.90;;;;;;5088070;28;20566;-77
2023/12/20 07:39:41;;;;;;;1.00;0.85;;;5.10;99.90;;;;;;5088679;28;20249;-79
2023/12/20 07:42:08;;;;;;;1.33;1.10;;;5.00;99.90;;;;;;5084209;28;20285;-85
2023/12/20 07:44:36;;;;;;;2.00;0.95;;;5.00;99.90;;;;;;5082524;28;20213;-84
2023/12/20 07:47:02;;;;;;;1.90;1.10;;;4.90;99.90;;;;;;5087953;28;20216;-80
2023/12/20 07:49:31;;;;;;;1.63;1.48;;;4.80;99.90;;;;;;5087097;28;20277;-82
2023/12/20 07:51:59;;;;;;;1.73;1.63;;;4.80;99.90;;;;;;5081363;28;20285;-82
2023/12/20 07:54:25;;;;;;;1.35;0.90;;;4.80;99.90;;;;;;5089279;28;20326;-82
2023/12/20 07:56:52;;;;;;;1.77;1.23;;;4.70;99.90;;;;;;5087694;28;20320;-79
2023/12/20 07:59:19;;;;;;;2.70;1.90;;;4.60;99.90;;;;;;5088504;28;20232;-79
2023/12/20 08:01:46;;;;;;;1.95;1.65;;;4.60;99.90;;;;;;5085092;28;20218;-79
2023/12/20 08:04:12;;;;;;;1.77;1.67;;;4.70;99.90;;;;;;5086980;28;20217;-79
2023/12/20 08:06:41;;;;;;;1.70;1.60;;;4.70;99.90;;;;;;5087276;28;20297;-79
2023/12/20 08:09:07;;;;;;;1.80;1.50;;;4.70;99.90;;;;;;5087574;28;20282;-79
2023/12/20 08:11:34;;;;;;;1.52;1.33;;;4.60;99.90;;;;;;5086648;28;20210;-79
2023/12/20 08:14:01;;;;;;;1.63;1.52;;;4.60;99.90;;;;;;5087363;28;20551;-79
2023/12/20 08:16:28;;;;;;;2.50;2.30;;;4.60;99.90;;;;;;5087056;28;20216;-79
2023/12/20 08:18:55;;;;;;;2.25;1.77;;;4.60;99.90;;;;;;5086879;28;20759;-79
2023/12/20 08:21:22;;;;;;;2.13;1.92;;;4.60;99.90;;;;;;5086408;28;20213;-80
2023/12/20 08:23:50;;;;;;;1.90;1.30;;;4.60;99.90;;;;;;5084832;28;20217;-81
2023/12/20 08:26:21;;;;;;;2.60;2.33;;;4.70;99.90;;;;;;5087511;28;20202;-79
2023/12/20 08:28:48;;;;;;;1.67;1.33;;;4.60;99.90;;;;;;5087663;28;20289;-79
2023/12/20 08:31:16;;;;;;;2.30;2.10;;;4.60;99.90;;;;;;5086635;28;20209;-81
2023/12/20 08:33:44;;;;;;;2.30;2.10;;;4.50;99.90;;;;;;5087593;28;20301;-85
2023/12/20 08:36:10;;;;;;;1.33;1.25;;;4.60;99.90;;;;;;5086472;28;20664;-84
2023/12/20 08:38:37;;;;;;;2.15;1.95;;;4.60;99.90;;;;;;5085916;28;20250;-83
2023/12/20 08:41:06;;;;;;;2.55;2.33;;;4.60;99.90;;;;;;5085429;28;20727;-83
2023/12/20 08:43:33;;;;;;;2.85;2.65;;;4.60;99.90;;;;;;5086642;28;20206;-83
2023/12/20 08:45:59;;;;;;;2.63;2.30;;;4.60;99.90;;;;;;5086275;28;20298;-82
2023/12/20 08:48:26;;;;;;;4.53;2.60;;;4.60;99.90;;;;;;5086749;28;20802;-82
2023/12/20 08:50:53;;;;;;;3.13;2.00;;;4.60;99.90;;;;;;5084293;28;20632;-81
2023/12/20 08:53:20;;;;;;;1.55;1.45;;;4.50;99.90;;;;;;5080334;28;20198;-82
2023/12/20 08:55:47;;;;;;;2.60;2.10;;;4.50;99.90;;;;;;5082375;28;20195;-83
2023/12/20 08:58:15;;;;;;;1.48;1.40;;;4.40;99.90;;;;;;5087194;28;20216;-82
2023/12/20 09:00:42;;;;;;;2.20;2.00;;;4.40;99.90;;;;;;5087053;28;20210;-81
2023/12/20 09:03:09;;;;;;;2.72;2.15;;;4.40;99.90;;;;;;5086291;28;20203;-78
2023/12/20 09:05:36;;;;;;;2.72;2.38;;;4.30;99.90;;;;;;5087277;28;20216;-81
2023/12/20 09:08:03;;;;;;;1.60;1.50;;;4.30;99.90;;;;;;5087015;28;20318;-81
2023/12/20 09:10:29;;;;;;;2.25;2.05;;;4.20;99.90;;;;;;5087074;28;20206;-81
2023/12/20 09:12:57;;;;;;;1.63;1.52;;;4.20;99.90;;;;;;5086376;28;20682;-83
2023/12/20 09:15:26;;;;;;;1.77;1.67;;;4.30;99.90;;;;;;5087015;28;20214;-83
2023/12/20 09:17:53;;;;;;;1.75;1.55;;;4.30;99.90;;;;;;5083746;28;20240;-82
2023/12/20 09:20:20;;;;;;;1.77;1.67;;;4.30;99.90;;;;;;5086699;28;20222;-82
2023/12/20 09:22:47;;;;;;;9.02;2.78;;;4.30;99.90;;;;;;5084025;28;20220;-84
2023/12/20 09:25:15;;;;;;;2.13;1.92;;;4.40;99.90;;;;;;5086712;28;20203;-82
2023/12/20 09:27:42;;;;;;;1.85;1.75;;;4.40;99.90;;;;;;5087096;28;20295;-82
2023/12/20 09:30:10;;;;;;;3.22;1.48;;;4.40;99.90;;;;;;5086570;28;20226;-82
2023/12/20 09:32:38;;;;;;;7.28;1.63;;;4.50;99.90;;;;;;5087041;28;20199;-84
2023/12/20 09:35:06;;;;;;;2.70;1.65;;;4.40;99.90;;;;;;5086431;28;20636;-81
2023/12/20 09:37:33;;;;;;;1.40;1.25;;;4.40;99.90;;;;;;5086479;28;20206;-82
2023/12/20 09:40:00;;;;;;;1.52;1.42;;;4.40;99.90;;;;;;5083063;28;20224;-82
2023/12/20 09:42:38;;;;;;;1.45;0.95;;;4.50;99.90;;;;;;5086352;28;20474;-82
2023/12/20 09:45:09;;;;;;;1.67;1.17;;;4.50;99.90;;;;;;5083813;28;20296;-82
2023/12/20 09:47:38;;;;;;;6.00;1.55;;;4.50;99.90;;;;;;5084438;28;20303;-83
2023/12/20 09:50:06;;;;;;;1.20;1.10;;;4.50;99.90;;;;;;5086226;28;20210;-82
2023/12/20 09:52:35;;;;;;;1.58;1.20;;;4.50;99.90;;;;;;5082766;28;20301;-82
2023/12/20 09:55:05;;;;;;;1.20;1.10;;;4.60;99.90;;;;;;5086803;28;20332;-87
2023/12/20 09:57:32;;;;;;;1.45;1.10;;;4.70;99.90;;;;;;5082362;28;20241;-86
2023/12/20 09:59:59;;;;;;;1.95;0.82;;;4.70;99.90;;;;;;5085837;28;20232;-86
2023/12/20 10:02:27;;;;;;;1.30;0.80;;;4.70;99.90;;;;;;5086832;28;20221;-86
2023/12/20 10:04:55;;;;;;;1.60;1.50;;;4.70;99.90;;;;;;5086017;28;20257;-86
2023/12/20 10:07:23;;;;;;;1.27;1.10;;;4.70;99.90;;;;;;5086174;28;21162;-86
2023/12/20 10:09:52;;;;;;;2.15;0.93;;;4.70;99.90;;;;;;5086538;28;20227;-87
2023/12/20 10:12:18;;;;;;;1.35;1.25;;;4.70;99.90;;;;;;5082824;28;20206;-86
2023/12/20 10:14:45;;;;;;;0.80;0.80;;;4.80;99.90;;;;;;5086223;28;20218;-88
2023/12/20 10:17:12;;;;;;;1.67;1.23;;;4.90;99.90;;;;;;5085283;28;20262;-87
2023/12/20 10:19:39;;;;;;;1.85;0.82;;;5.10;99.90;;;;;;5083376;28;20251;-77
2023/12/20 10:22:07;;;;;;;1.45;1.25;;;5.20;99.90;;;;;;5079173;28;20262;-80
2023/12/20 10:24:34;;;;;;;1.55;1.35;;;5.30;99.90;;;;;;5084550;28;20289;-80
2023/12/20 10:27:05;;;;;;;3.60;1.83;;;5.30;99.90;;;;;;5080606;28;20212;-79
2023/12/20 10:29:34;;;;;;;1.48;1.20;;;5.30;99.90;;;;;;5080554;28;20213;-79
2023/12/20 10:32:01;;;;;;;2.15;1.58;;;5.20;99.90;;;;;;5081586;28;20209;-80
2023/12/20 10:34:27;;;;;;;1.75;0.70;;;5.20;99.90;;;;;;5077712;28;20203;-80
2023/12/20 10:36:54;;;;;;;1.30;1.00;;;5.20;99.90;;;;;;5085578;28;20281;-81
2023/12/20 10:39:23;;;;;;;2.60;0.90;;;5.10;99.90;;;;;;5085852;28;20215;-80
2023/12/20 10:41:51;;;;;;;1.80;1.17;;;5.10;99.90;;;;;;5085637;28;20301;-81
2023/12/20 10:44:17;;;;;;;1.45;1.35;;;5.10;99.90;;;;;;5085901;28;20606;-77
2023/12/20 10:46:51;;;;;;;4.60;1.45;;;5.10;99.90;;;;;;5085256;28;20579;-76
2023/12/20 10:49:19;;;;;;;1.00;1.00;;;5.20;99.90;;;;;;5084956;28;20731;-76
2023/12/20 10:51:48;;;;;;;1.15;1.02;;;5.10;99.90;;;;;;5079408;28;20584;-77
2023/12/20 10:54:15;;;;;;;1.65;1.40;;;5.00;99.90;;;;;;5085096;28;20712;-76
2023/12/20 10:56:44;;;;;;;1.73;1.63;;;5.00;99.90;;;;;;5080532;28;20246;-76
2023/12/20 10:59:12;;;;;;;0.57;0.57;;;5.10;99.90;;;;;;5085312;28;20310;-76
2023/12/20 11:01:42;;;;;;;1.02;1.00;;;5.00;99.90;;;;;;5081580;28;20202;-76
2023/12/20 11:04:16;;;;;;;0.65;0.65;;;5.00;99.90;;;;;;5085854;28;20580;-77
2023/12/20 11:06:48;;;;;;;10.52;2.47;;;5.00;99.90;;;;;;5084227;28;20209;-77
2023/12/20 11:09:23;;;;;;;1.23;1.13;;;5.10;99.90;;;;;;5085628;28;20203;-77
2023/12/20 11:12:10;;;;;;;1.60;1.25;;;5.10;99.90;;;;;;5078029;28;20678;-77
2023/12/20 11:14:44;;;;;;;1.35;0.95;;;5.10;99.90;;;;;;5080328;28;20205;-78
2023/12/20 11:17:13;;;;;;;0.80;0.80;;;5.10;99.90;;;;;;5084403;28;20289;-78
2023/12/20 11:20:05;;;;;;;1.77;1.17;;;5.10;99.90;;;;;;5083568;28;20223;-76
2023/12/20 11:22:33;;;;;;;0.60;0.60;;;5.00;99.90;;;;;;5080530;28;20583;-75
2023/12/20 11:25:04;;;;;;;1.00;0.88;;;5.10;99.90;;;;;;5086583;28;20287;-75
2023/12/20 11:27:33;;;;;;;1.63;1.52;;;5.10;99.90;;;;;;5089175;28;20642;-75
2023/12/20 11:30:00;;;;;;;3.42;1.10;;;5.10;99.90;;;;;;5087210;28;20215;-76
2023/12/20 11:32:30;;;;;;;0.70;0.60;;;5.10;99.90;;;;;;5081423;28;20207;-79
2023/12/20 11:34:59;;;;;;;1.38;0.75;;;5.20;99.90;;;;;;5088710;28;20210;-76
2023/12/20 11:37:31;;;;;;;1.15;1.05;;;5.20;99.90;;;;;;5089075;28;20214;-77
2023/12/20 11:40:02;;;;;;;3.25;1.45;;;5.20;99.90;;;;;;5087443;28;20229;-76
2023/12/20 11:42:29;;;;;;;0.75;0.75;;;5.10;99.90;;;;;;5084695;28;20210;-77
2023/12/20 11:44:57;;;;;;;1.58;1.23;;;5.10;99.90;;;;;;5088434;28;20241;-83
2023/12/20 11:47:24;;;;;;;1.40;0.80;;;5.10;99.90;;;;;;5085582;28;20275;-79
2023/12/20 11:49:51;;;;;;;2.13;0.80;;;5.10;99.90;;;;;;5088239;28;20205;-83
2023/12/20 11:52:18;;;;;;;1.02;1.02;;;5.10;99.90;;;;;;5086308;28;20208;-78
2023/12/20 11:54:45;;;;;;;1.02;0.90;;;5.20;99.90;;;;;;5083857;28;20213;-77
2023/12/20 11:57:12;;;;;;;1.50;0.75;;;5.20;99.90;;;;;;5080657;28;20209;-81
2023/12/20 11:59:38;;;;;;;1.02;0.85;;;5.10;99.80;;;;;;5094724;28;20318;-83
2023/12/20 12:02:07;;;;;;;1.02;0.80;;;5.20;99.80;;;;;;5088005;28;20225;-84
2023/12/20 12:04:33;;;;;;;2.47;0.95;;;5.10;99.60;;;;;;5088775;28;20206;-78
2023/12/20 12:07:00;;;;;;;4.10;1.23;;;5.00;99.40;;;;;;5087780;28;20202;-80
2023/12/20 12:09:27;;;;;;;1.55;1.45;;;5.00;99.80;;;;;;5086414;28;20203;-80
2023/12/20 12:11:54;;;;;;;0.65;0.63;;;5.00;99.90;;;;;;5084927;28;20209;-79
2023/12/20 12:14:21;;;;;;;1.27;0.93;;;5.00;99.90;;;;;;5084802;28;20619;-81
2023/12/20 12:16:49;;;;;;;1.02;0.90;;;5.00;99.90;;;;;;5087692;28;20202;-77
2023/12/20 12:19:24;;;;;;;1.15;1.05;;;5.00;99.90;;;;;;5087355;28;20626;-79
2023/12/20 12:21:51;;;;;;;1.02;0.82;;;5.10;99.90;;;;;;5083804;28;20251;-83
2023/12/20 12:24:22;;;;;;;0.73;0.73;;;5.10;99.90;;;;;;5085202;28;20286;-82
2023/12/20 12:26:52;;;;;;;0.98;0.90;;;5.20;99.90;;;;;;5088625;28;20238;-84
2023/12/20 12:29:19;;;;;;;2.35;1.65;;;5.30;99.90;;;;;;5082417;28;20206;-84
2023/12/20 12:31:45;;;;;;;1.77;1.50;;;5.30;99.60;;;;;;5084455;28;20290;-84
2023/12/20 12:34:12;;;;;;;2.38;1.48;;;5.40;99.90;;;;;;5084018;28;20263;-84
2023/12/20 12:36:41;;;;;;;0.85;0.70;;;5.50;99.50;;;;;;5089314;28;20206;-83
2023/12/20 12:39:08;;;;;;;1.00;0.90;;;5.50;98.90;;;;;;5085456;28;20199;-84
2023/12/20 12:41:35;;;;;;;0.98;0.98;;;5.50;99.20;;;;;;5087704;28;20661;-75
2023/12/20 12:44:02;;;;;;;0.82;0.82;;;5.50;98.30;;;;;;5087747;28;20226;-84
2023/12/20 12:46:29;;;;;;;0.73;0.73;;;5.50;99.20;;;;;;5088064;28;20206;-86
2023/12/20 12:48:55;;;;;;;1.70;1.25;;;5.60;99.70;;;;;;5087678;28;20230;-86
2023/12/20 12:51:25;;;;;;;1.80;1.13;;;5.70;99.70;;;;;;5085639;28;20711;-83
2023/12/20 12:53:54;;;;;;;0.80;0.80;;;5.60;99.10;;;;;;5086289;28;20331;-83
2023/12/20 12:56:31;;;;;;;1.33;1.02;;;5.60;98.70;;;;;;5082060;28;20583;-83
2023/12/20 12:58:58;;;;;;;1.27;1.05;;;5.50;98.50;;;;;;5083848;28;20246;-75